sensor_id;sensor_type;location;lat;lon;timestamp;temperature;humidity
610;DHT22;292;48.800;9.216;2022-08-30T00:01:21;24.00;57.00
610;DHT22;292;48.800;9.216;2022-08-30T00:03:50;24.00;57.00
610;DHT22;292;48.800;9.216;2022-08-30T00:06:20;23.90;57.20
610;DHT22;292;48.800;9.216;2022-08-30T00:08:47;23.90;57.20
610;DHT22;292;48.800;9.216;2022-08-30T00:11:17;23.90;57.30
610;DHT22;292;48.800;9.216;2022-08-30T00:13:46;23.80;57.40
610;DHT22;292;48.800;9.216;2022-08-30T00:16:14;23.80;57.70
610;DHT22;292;48.800;9.216;2022-08-30T00:18:42;23.80;57.80
610;DHT22;292;48.800;9.216;2022-08-30T00:21:11;23.70;58.10
610;DHT22;292;48.800;9.216;2022-08-30T00:23:38;23.70;58.20
610;DHT22;292;48.800;9.216;2022-08-30T00:26:06;23.70;58.20
610;DHT22;292;48.800;9.216;2022-08-30T00:28:34;23.60;58.20
610;DHT22;292;48.800;9.216;2022-08-30T00:31:02;23.60;58.20
610;DHT22;292;48.800;9.216;2022-08-30T00:33:29;23.50;58.40
610;DHT22;292;48.800;9.216;2022-08-30T00:35:56;23.50;58.40
610;DHT22;292;48.800;9.216;2022-08-30T00:38:24;23.50;58.50
610;DHT22;292;48.800;9.216;2022-08-30T00:40:52;23.50;58.50
610;DHT22;292;48.800;9.216;2022-08-30T00:43:23;23.40;58.60
610;DHT22;292;48.800;9.216;2022-08-30T00:45:50;23.40;58.80
610;DHT22;292;48.800;9.216;2022-08-30T00:48:18;23.40;58.80
610;DHT22;292;48.800;9.216;2022-08-30T00:50:49;23.40;58.90
610;DHT22;292;48.800;9.216;2022-08-30T00:53:21;23.40;59.20
610;DHT22;292;48.800;9.216;2022-08-30T00:55:52;23.40;59.60
610;DHT22;292;48.800;9.216;2022-08-30T00:58:23;23.30;59.80
610;DHT22;292;48.800;9.216;2022-08-30T01:00:54;23.30;60.10
610;DHT22;292;48.800;9.216;2022-08-30T01:03:23;23.30;60.40
610;DHT22;292;48.800;9.216;2022-08-30T01:05:51;23.20;60.50
610;DHT22;292;48.800;9.216;2022-08-30T01:08:19;23.20;60.50
610;DHT22;292;48.800;9.216;2022-08-30T01:10:47;23.20;60.70
610;DHT22;292;48.800;9.216;2022-08-30T01:13:15;23.20;60.50
610;DHT22;292;48.800;9.216;2022-08-30T01:15:43;23.20;60.50
610;DHT22;292;48.800;9.216;2022-08-30T01:18:12;23.20;60.40
610;DHT22;292;48.800;9.216;2022-08-30T01:20:46;23.20;60.40
610;DHT22;292;48.800;9.216;2022-08-30T01:23:17;23.10;60.40
610;DHT22;292;48.800;9.216;2022-08-30T01:25:47;23.10;60.50
610;DHT22;292;48.800;9.216;2022-08-30T01:28:19;23.10;60.70
610;DHT22;292;48.800;9.216;2022-08-30T01:30:46;23.10;61.00
610;DHT22;292;48.800;9.216;2022-08-30T01:33:14;23.10;61.10
610;DHT22;292;48.800;9.216;2022-08-30T01:35:48;23.10;61.20
610;DHT22;292;48.800;9.216;2022-08-30T01:38:19;23.10;61.40
610;DHT22;292;48.800;9.216;2022-08-30T01:40:47;23.10;61.50
610;DHT22;292;48.800;9.216;2022-08-30T01:43:15;23.10;61.50
610;DHT22;292;48.800;9.216;2022-08-30T01:45:43;23.00;61.70
610;DHT22;292;48.800;9.216;2022-08-30T01:48:11;23.00;61.80
610;DHT22;292;48.800;9.216;2022-08-30T01:50:39;23.00;61.80
610;DHT22;292;48.800;9.216;2022-08-30T01:53:06;22.90;62.00
610;DHT22;292;48.800;9.216;2022-08-30T01:55:34;22.90;62.10
610;DHT22;292;48.800;9.216;2022-08-30T01:58:03;22.90;62.10
610;DHT22;292;48.800;9.216;2022-08-30T02:00:30;22.80;62.30
610;DHT22;292;48.800;9.216;2022-08-30T02:02:57;22.80;62.40
610;DHT22;292;48.800;9.216;2022-08-30T02:05:24;22.80;62.50
610;DHT22;292;48.800;9.216;2022-08-30T02:07:51;22.70;62.80
610;DHT22;292;48.800;9.216;2022-08-30T02:10:19;22.70;63.00
610;DHT22;292;48.800;9.216;2022-08-30T02:12:48;22.70;63.30
610;DHT22;292;48.800;9.216;2022-08-30T02:15:15;22.60;63.40
610;DHT22;292;48.800;9.216;2022-08-30T02:17:42;22.60;63.60
610;DHT22;292;48.800;9.216;2022-08-30T02:20:10;22.60;63.60
610;DHT22;292;48.800;9.216;2022-08-30T02:22:37;22.60;63.80
610;DHT22;292;48.800;9.216;2022-08-30T02:25:05;22.50;63.80
610;DHT22;292;48.800;9.216;2022-08-30T02:27:33;22.50;63.80
610;DHT22;292;48.800;9.216;2022-08-30T02:30:01;22.50;64.00
610;DHT22;292;48.800;9.216;2022-08-30T02:32:28;22.50;64.00
610;DHT22;292;48.800;9.216;2022-08-30T02:34:55;22.40;64.00
610;DHT22;292;48.800;9.216;2022-08-30T02:37:22;22.40;64.00
610;DHT22;292;48.800;9.216;2022-08-30T02:39:50;22.40;64.10
610;DHT22;292;48.800;9.216;2022-08-30T02:42:17;22.40;64.10
610;DHT22;292;48.800;9.216;2022-08-30T02:44:44;22.40;64.10
610;DHT22;292;48.800;9.216;2022-08-30T02:47:12;22.40;64.10
610;DHT22;292;48.800;9.216;2022-08-30T02:49:40;22.40;64.10
610;DHT22;292;48.800;9.216;2022-08-30T02:52:07;22.40;64.10
610;DHT22;292;48.800;9.216;2022-08-30T02:54:34;22.40;64.10
610;DHT22;292;48.800;9.216;2022-08-30T02:57:00;22.40;64.30
610;DHT22;292;48.800;9.216;2022-08-30T02:59:29;22.30;64.60
610;DHT22;292;48.800;9.216;2022-08-30T03:01:56;22.20;64.90
610;DHT22;292;48.800;9.216;2022-08-30T03:04:25;22.20;65.10
610;DHT22;292;48.800;9.216;2022-08-30T03:06:52;22.20;65.10
610;DHT22;292;48.800;9.216;2022-08-30T03:09:19;22.10;65.10
610;DHT22;292;48.800;9.216;2022-08-30T03:11:46;22.10;65.30
610;DHT22;292;48.800;9.216;2022-08-30T03:14:13;22.10;65.30
610;DHT22;292;48.800;9.216;2022-08-30T03:16:40;22.10;65.40
610;DHT22;292;48.800;9.216;2022-08-30T03:19:07;22.10;65.40
610;DHT22;292;48.800;9.216;2022-08-30T03:21:37;22.00;65.40
610;DHT22;292;48.800;9.216;2022-08-30T03:24:04;22.00;65.30
610;DHT22;292;48.800;9.216;2022-08-30T03:26:32;22.00;65.30
610;DHT22;292;48.800;9.216;2022-08-30T03:28:59;22.00;65.30
610;DHT22;292;48.800;9.216;2022-08-30T03:31:26;22.00;65.10
610;DHT22;292;48.800;9.216;2022-08-30T03:33:54;22.00;65.00
610;DHT22;292;48.800;9.216;2022-08-30T03:36:21;22.00;65.00
610;DHT22;292;48.800;9.216;2022-08-30T03:38:49;21.90;64.90
610;DHT22;292;48.800;9.216;2022-08-30T03:41:16;21.90;64.90
610;DHT22;292;48.800;9.216;2022-08-30T03:43:43;21.90;64.90
610;DHT22;292;48.800;9.216;2022-08-30T03:46:12;21.90;64.90
610;DHT22;292;48.800;9.216;2022-08-30T03:48:40;21.90;64.70
610;DHT22;292;48.800;9.216;2022-08-30T03:51:07;21.90;64.70
610;DHT22;292;48.800;9.216;2022-08-30T03:53:34;21.90;64.70
610;DHT22;292;48.800;9.216;2022-08-30T03:56:03;21.80;64.90
610;DHT22;292;48.800;9.216;2022-08-30T03:58:30;21.80;65.00
610;DHT22;292;48.800;9.216;2022-08-30T04:00:57;21.80;65.30
610;DHT22;292;48.800;9.216;2022-08-30T04:03:24;21.70;65.70
610;DHT22;292;48.800;9.216;2022-08-30T04:05:51;21.70;65.90
610;DHT22;292;48.800;9.216;2022-08-30T04:08:19;21.70;66.00
610;DHT22;292;48.800;9.216;2022-08-30T04:10:46;21.60;66.20
610;DHT22;292;48.800;9.216;2022-08-30T04:13:15;21.60;66.40
610;DHT22;292;48.800;9.216;2022-08-30T04:15:42;21.60;66.30
610;DHT22;292;48.800;9.216;2022-08-30T04:18:09;21.60;66.30
610;DHT22;292;48.800;9.216;2022-08-30T04:20:36;21.50;66.30
610;DHT22;292;48.800;9.216;2022-08-30T04:23:03;21.50;66.30
610;DHT22;292;48.800;9.216;2022-08-30T04:25:32;21.50;66.40
610;DHT22;292;48.800;9.216;2022-08-30T04:27:59;21.50;66.40
610;DHT22;292;48.800;9.216;2022-08-30T04:30:27;21.50;66.60
610;DHT22;292;48.800;9.216;2022-08-30T04:32:55;21.50;66.70
610;DHT22;292;48.800;9.216;2022-08-30T04:35:22;21.50;67.00
610;DHT22;292;48.800;9.216;2022-08-30T04:37:49;21.40;67.20
610;DHT22;292;48.800;9.216;2022-08-30T04:40:17;21.40;67.30
610;DHT22;292;48.800;9.216;2022-08-30T04:42:44;21.40;67.60
610;DHT22;292;48.800;9.216;2022-08-30T04:45:13;21.40;67.70
610;DHT22;292;48.800;9.216;2022-08-30T04:47:43;21.40;67.70
610;DHT22;292;48.800;9.216;2022-08-30T04:50:12;21.30;68.00
610;DHT22;292;48.800;9.216;2022-08-30T04:52:40;21.30;68.20
610;DHT22;292;48.800;9.216;2022-08-30T04:55:08;21.30;68.20
610;DHT22;292;48.800;9.216;2022-08-30T04:57:36;21.30;68.00
610;DHT22;292;48.800;9.216;2022-08-30T05:00:08;21.30;68.00
610;DHT22;292;48.800;9.216;2022-08-30T05:02:37;21.30;68.00
610;DHT22;292;48.800;9.216;2022-08-30T05:05:06;21.20;68.00
610;DHT22;292;48.800;9.216;2022-08-30T05:07:51;21.20;68.00
610;DHT22;292;48.800;9.216;2022-08-30T05:10:18;21.20;68.20
610;DHT22;292;48.800;9.216;2022-08-30T05:12:45;21.20;68.30
610;DHT22;292;48.800;9.216;2022-08-30T05:15:13;21.20;68.30
610;DHT22;292;48.800;9.216;2022-08-30T05:17:41;21.20;68.50
610;DHT22;292;48.800;9.216;2022-08-30T05:20:10;21.10;68.70
610;DHT22;292;48.800;9.216;2022-08-30T05:22:40;21.10;68.70
610;DHT22;292;48.800;9.216;2022-08-30T05:25:14;21.20;68.90
610;DHT22;292;48.800;9.216;2022-08-30T05:27:41;21.20;68.90
610;DHT22;292;48.800;9.216;2022-08-30T05:30:10;21.20;69.00
610;DHT22;292;48.800;9.216;2022-08-30T05:32:37;21.20;68.90
610;DHT22;292;48.800;9.216;2022-08-30T05:35:04;21.30;68.90
610;DHT22;292;48.800;9.216;2022-08-30T05:37:33;21.30;68.70
610;DHT22;292;48.800;9.216;2022-08-30T05:40:01;21.30;68.70
610;DHT22;292;48.800;9.216;2022-08-30T05:42:28;21.30;68.70
610;DHT22;292;48.800;9.216;2022-08-30T05:44:55;21.30;68.70
610;DHT22;292;48.800;9.216;2022-08-30T05:47:23;21.40;68.70
610;DHT22;292;48.800;9.216;2022-08-30T05:49:50;21.40;68.50
610;DHT22;292;48.800;9.216;2022-08-30T05:52:17;21.40;68.50
610;DHT22;292;48.800;9.216;2022-08-30T05:54:51;21.40;68.50
610;DHT22;292;48.800;9.216;2022-08-30T05:57:18;21.50;68.50
610;DHT22;292;48.800;9.216;2022-08-30T05:59:45;21.50;68.50
610;DHT22;292;48.800;9.216;2022-08-30T06:02:12;21.60;68.30
610;DHT22;292;48.800;9.216;2022-08-30T06:04:39;21.60;68.30
610;DHT22;292;48.800;9.216;2022-08-30T06:07:06;21.70;68.20
610;DHT22;292;48.800;9.216;2022-08-30T06:09:33;21.70;68.00
610;DHT22;292;48.800;9.216;2022-08-30T06:12:02;21.70;67.90
610;DHT22;292;48.800;9.216;2022-08-30T06:14:29;21.80;67.60
610;DHT22;292;48.800;9.216;2022-08-30T06:16:56;21.70;67.30
610;DHT22;292;48.800;9.216;2022-08-30T06:19:23;21.70;67.20
610;DHT22;292;48.800;9.216;2022-08-30T06:21:50;21.70;67.20
610;DHT22;292;48.800;9.216;2022-08-30T06:24:18;21.70;67.20
610;DHT22;292;48.800;9.216;2022-08-30T06:26:46;21.70;67.20
610;DHT22;292;48.800;9.216;2022-08-30T06:29:15;21.60;67.20
610;DHT22;292;48.800;9.216;2022-08-30T06:31:43;21.60;67.30
610;DHT22;292;48.800;9.216;2022-08-30T06:34:10;21.60;67.50
610;DHT22;292;48.800;9.216;2022-08-30T06:36:37;21.60;67.60
610;DHT22;292;48.800;9.216;2022-08-30T06:39:05;21.70;67.60
610;DHT22;292;48.800;9.216;2022-08-30T06:41:34;21.70;67.70
610;DHT22;292;48.800;9.216;2022-08-30T06:44:03;21.70;67.60
610;DHT22;292;48.800;9.216;2022-08-30T06:46:33;21.80;67.60
610;DHT22;292;48.800;9.216;2022-08-30T06:49:01;21.80;67.60
610;DHT22;292;48.800;9.216;2022-08-30T06:51:30;21.90;67.60
610;DHT22;292;48.800;9.216;2022-08-30T06:53:57;21.90;67.60
610;DHT22;292;48.800;9.216;2022-08-30T06:56:25;22.00;67.50
610;DHT22;292;48.800;9.216;2022-08-30T06:58:52;22.00;67.20
610;DHT22;292;48.800;9.216;2022-08-30T07:01:21;22.10;67.00
610;DHT22;292;48.800;9.216;2022-08-30T07:03:50;22.10;66.60
610;DHT22;292;48.800;9.216;2022-08-30T07:06:18;22.20;66.40
610;DHT22;292;48.800;9.216;2022-08-30T07:08:46;22.20;66.20
610;DHT22;292;48.800;9.216;2022-08-30T07:11:14;22.30;65.90
610;DHT22;292;48.800;9.216;2022-08-30T07:13:41;22.30;65.60
610;DHT22;292;48.800;9.216;2022-08-30T07:16:11;22.40;65.40
610;DHT22;292;48.800;9.216;2022-08-30T07:18:39;22.50;65.10
610;DHT22;292;48.800;9.216;2022-08-30T07:21:23;22.50;64.90
610;DHT22;292;48.800;9.216;2022-08-30T07:23:51;22.60;64.60
610;DHT22;292;48.800;9.216;2022-08-30T07:26:20;22.60;64.30
610;DHT22;292;48.800;9.216;2022-08-30T07:28:48;22.70;64.00
610;DHT22;292;48.800;9.216;2022-08-30T07:31:16;22.80;63.70
610;DHT22;292;48.800;9.216;2022-08-30T07:33:45;22.80;63.60
610;DHT22;292;48.800;9.216;2022-08-30T07:36:12;22.90;63.70
610;DHT22;292;48.800;9.216;2022-08-30T07:38:43;23.00;63.40
610;DHT22;292;48.800;9.216;2022-08-30T07:41:16;23.10;63.00
610;DHT22;292;48.800;9.216;2022-08-30T07:43:43;23.20;62.50
610;DHT22;292;48.800;9.216;2022-08-30T07:46:10;23.30;62.00
610;DHT22;292;48.800;9.216;2022-08-30T07:48:38;23.40;61.70
610;DHT22;292;48.800;9.216;2022-08-30T07:51:08;23.40;61.50
610;DHT22;292;48.800;9.216;2022-08-30T07:53:36;23.50;61.20
610;DHT22;292;48.800;9.216;2022-08-30T07:56:05;23.50;60.80
610;DHT22;292;48.800;9.216;2022-08-30T07:58:32;23.60;60.50
610;DHT22;292;48.800;9.216;2022-08-30T08:00:59;23.70;60.50
610;DHT22;292;48.800;9.216;2022-08-30T08:03:27;23.70;60.40
610;DHT22;292;48.800;9.216;2022-08-30T08:05:54;23.80;60.20
610;DHT22;292;48.800;9.216;2022-08-30T08:08:22;23.80;60.20
610;DHT22;292;48.800;9.216;2022-08-30T08:10:49;23.90;60.00
610;DHT22;292;48.800;9.216;2022-08-30T08:13:17;24.00;59.80
610;DHT22;292;48.800;9.216;2022-08-30T08:15:44;24.00;59.70
610;DHT22;292;48.800;9.216;2022-08-30T08:18:12;24.10;59.40
610;DHT22;292;48.800;9.216;2022-08-30T08:20:39;24.20;59.00
610;DHT22;292;48.800;9.216;2022-08-30T08:23:06;24.20;58.90
610;DHT22;292;48.800;9.216;2022-08-30T08:25:38;24.30;58.80
610;DHT22;292;48.800;9.216;2022-08-30T08:28:06;24.40;58.60
610;DHT22;292;48.800;9.216;2022-08-30T08:30:35;24.40;58.40
610;DHT22;292;48.800;9.216;2022-08-30T08:33:03;24.50;58.20
610;DHT22;292;48.800;9.216;2022-08-30T08:35:31;24.60;58.20
610;DHT22;292;48.800;9.216;2022-08-30T08:37:59;24.70;58.10
610;DHT22;292;48.800;9.216;2022-08-30T08:40:26;24.80;58.00
610;DHT22;292;48.800;9.216;2022-08-30T08:43:00;24.90;57.70
610;DHT22;292;48.800;9.216;2022-08-30T08:45:42;25.00;57.40
610;DHT22;292;48.800;9.216;2022-08-30T08:48:23;25.10;57.30
610;DHT22;292;48.800;9.216;2022-08-30T08:50:51;25.20;57.00
610;DHT22;292;48.800;9.216;2022-08-30T08:53:36;25.30;56.80
610;DHT22;292;48.800;9.216;2022-08-30T08:56:05;25.40;56.60
610;DHT22;292;48.800;9.216;2022-08-30T08:58:40;25.50;56.40
610;DHT22;292;48.800;9.216;2022-08-30T09:01:10;25.60;55.80
610;DHT22;292;48.800;9.216;2022-08-30T09:03:38;25.80;55.60
610;DHT22;292;48.800;9.216;2022-08-30T09:06:14;25.90;55.20
610;DHT22;292;48.800;9.216;2022-08-30T09:08:45;26.00;54.80
610;DHT22;292;48.800;9.216;2022-08-30T09:11:19;26.10;54.40
610;DHT22;292;48.800;9.216;2022-08-30T09:13:47;26.30;54.10
610;DHT22;292;48.800;9.216;2022-08-30T09:16:50;26.40;53.80
610;DHT22;292;48.800;9.216;2022-08-30T09:19:33;26.50;53.60
610;DHT22;292;48.800;9.216;2022-08-30T09:22:03;26.60;53.20
610;DHT22;292;48.800;9.216;2022-08-30T09:24:40;26.70;53.00
610;DHT22;292;48.800;9.216;2022-08-30T09:27:20;26.80;52.80
610;DHT22;292;48.800;9.216;2022-08-30T09:29:54;26.90;52.60
610;DHT22;292;48.800;9.216;2022-08-30T09:32:28;27.00;52.50
610;DHT22;292;48.800;9.216;2022-08-30T09:34:56;27.10;52.20
610;DHT22;292;48.800;9.216;2022-08-30T09:37:30;27.10;51.80
610;DHT22;292;48.800;9.216;2022-08-30T09:39:59;27.20;51.70
610;DHT22;292;48.800;9.216;2022-08-30T09:42:28;27.30;51.70
610;DHT22;292;48.800;9.216;2022-08-30T09:44:56;27.40;51.40
610;DHT22;292;48.800;9.216;2022-08-30T09:47:38;27.50;51.00
610;DHT22;292;48.800;9.216;2022-08-30T09:50:08;27.60;50.60
610;DHT22;292;48.800;9.216;2022-08-30T09:52:56;27.70;50.50
610;DHT22;292;48.800;9.216;2022-08-30T09:58:32;27.90;50.00
610;DHT22;292;48.800;9.216;2022-08-30T10:01:09;28.00;49.70
610;DHT22;292;48.800;9.216;2022-08-30T10:03:44;28.10;49.30
610;DHT22;292;48.800;9.216;2022-08-30T10:06:24;28.20;49.00
610;DHT22;292;48.800;9.216;2022-08-30T10:09:08;28.20;48.80
610;DHT22;292;48.800;9.216;2022-08-30T10:11:43;28.30;48.40
610;DHT22;292;48.800;9.216;2022-08-30T10:14:28;28.40;48.20
610;DHT22;292;48.800;9.216;2022-08-30T10:17:02;28.40;47.70
610;DHT22;292;48.800;9.216;2022-08-30T10:19:48;28.50;47.60
610;DHT22;292;48.800;9.216;2022-08-30T10:22:27;28.60;47.00
610;DHT22;292;48.800;9.216;2022-08-30T10:25:02;28.70;46.90
610;DHT22;292;48.800;9.216;2022-08-30T10:27:35;28.80;46.20
610;DHT22;292;48.800;9.216;2022-08-30T10:30:06;28.90;45.70
610;DHT22;292;48.800;9.216;2022-08-30T10:32:40;28.90;45.30
610;DHT22;292;48.800;9.216;2022-08-30T10:35:14;29.00;44.50
610;DHT22;292;48.800;9.216;2022-08-30T10:37:45;29.10;44.10
610;DHT22;292;48.800;9.216;2022-08-30T10:40:16;29.20;43.70
610;DHT22;292;48.800;9.216;2022-08-30T10:43:07;29.30;43.00
610;DHT22;292;48.800;9.216;2022-08-30T10:45:41;29.40;42.40
610;DHT22;292;48.800;9.216;2022-08-30T10:48:15;29.50;41.80
610;DHT22;292;48.800;9.216;2022-08-30T10:50:48;29.60;41.40
610;DHT22;292;48.800;9.216;2022-08-30T10:53:21;29.60;41.30
610;DHT22;292;48.800;9.216;2022-08-30T10:55:54;29.70;41.00
610;DHT22;292;48.800;9.216;2022-08-30T10:58:22;29.80;40.50
610;DHT22;292;48.800;9.216;2022-08-30T11:00:58;29.80;40.10
610;DHT22;292;48.800;9.216;2022-08-30T11:06:41;29.80;40.00
610;DHT22;292;48.800;9.216;2022-08-30T11:09:30;29.90;39.80
610;DHT22;292;48.800;9.216;2022-08-30T11:12:31;29.90;39.00
610;DHT22;292;48.800;9.216;2022-08-30T11:15:01;30.00;38.60
610;DHT22;292;48.800;9.216;2022-08-30T11:17:42;30.00;38.80
610;DHT22;292;48.800;9.216;2022-08-30T11:20:22;30.10;38.60
610;DHT22;292;48.800;9.216;2022-08-30T11:23:25;30.10;38.00
610;DHT22;292;48.800;9.216;2022-08-30T11:25:58;30.20;37.70
610;DHT22;292;48.800;9.216;2022-08-30T11:29:02;30.20;37.70
610;DHT22;292;48.800;9.216;2022-08-30T11:31:34;30.30;37.40
610;DHT22;292;48.800;9.216;2022-08-30T11:34:02;30.30;37.80
610;DHT22;292;48.800;9.216;2022-08-30T11:37:00;30.30;38.00
610;DHT22;292;48.800;9.216;2022-08-30T11:39:50;30.40;38.20
610;DHT22;292;48.800;9.216;2022-08-30T11:42:32;30.40;38.20
610;DHT22;292;48.800;9.216;2022-08-30T11:48:05;30.40;37.60
610;DHT22;292;48.800;9.216;2022-08-30T11:50:39;30.50;37.60
610;DHT22;292;48.800;9.216;2022-08-30T11:53:17;30.40;37.40
610;DHT22;292;48.800;9.216;2022-08-30T11:55:55;30.50;37.40
610;DHT22;292;48.800;9.216;2022-08-30T11:58:35;30.50;37.40
610;DHT22;292;48.800;9.216;2022-08-30T12:01:29;30.50;37.40
610;DHT22;292;48.800;9.216;2022-08-30T12:04:02;30.40;37.30
610;DHT22;292;48.800;9.216;2022-08-30T12:06:47;30.40;37.60
610;DHT22;292;48.800;9.216;2022-08-30T12:13:03;30.40;38.60
610;DHT22;292;48.800;9.216;2022-08-30T12:18:36;30.40;39.00
610;DHT22;292;48.800;9.216;2022-08-30T12:21:11;30.40;39.00
610;DHT22;292;48.800;9.216;2022-08-30T12:23:47;30.30;39.20
610;DHT22;292;48.800;9.216;2022-08-30T12:26:19;30.40;39.30
610;DHT22;292;48.800;9.216;2022-08-30T12:28:48;30.30;39.00
610;DHT22;292;48.800;9.216;2022-08-30T12:31:19;30.30;38.90
610;DHT22;292;48.800;9.216;2022-08-30T12:33:55;30.40;38.90
610;DHT22;292;48.800;9.216;2022-08-30T12:36:33;30.40;38.90
610;DHT22;292;48.800;9.216;2022-08-30T12:39:12;30.40;39.00
610;DHT22;292;48.800;9.216;2022-08-30T12:41:40;30.40;39.20
610;DHT22;292;48.800;9.216;2022-08-30T12:44:13;30.40;39.20
610;DHT22;292;48.800;9.216;2022-08-30T12:46:42;30.50;38.90
610;DHT22;292;48.800;9.216;2022-08-30T12:49:12;30.50;38.90
610;DHT22;292;48.800;9.216;2022-08-30T12:51:41;30.50;38.60
610;DHT22;292;48.800;9.216;2022-08-30T12:54:16;30.60;38.50
610;DHT22;292;48.800;9.216;2022-08-30T12:57:01;30.70;38.40
610;DHT22;292;48.800;9.216;2022-08-30T12:59:41;30.70;38.10
610;DHT22;292;48.800;9.216;2022-08-30T13:02:12;30.80;38.00
610;DHT22;292;48.800;9.216;2022-08-30T13:04:40;30.80;38.10
610;DHT22;292;48.800;9.216;2022-08-30T13:07:08;30.90;38.20
610;DHT22;292;48.800;9.216;2022-08-30T13:09:37;30.90;38.10
610;DHT22;292;48.800;9.216;2022-08-30T13:12:07;30.90;37.70
610;DHT22;292;48.800;9.216;2022-08-30T13:14:37;31.00;37.40
610;DHT22;292;48.800;9.216;2022-08-30T13:17:20;31.00;37.00
610;DHT22;292;48.800;9.216;2022-08-30T13:20:00;31.10;36.60
610;DHT22;292;48.800;9.216;2022-08-30T13:22:30;31.10;36.40
610;DHT22;292;48.800;9.216;2022-08-30T13:24:58;31.10;36.50
610;DHT22;292;48.800;9.216;2022-08-30T13:27:28;31.20;36.50
610;DHT22;292;48.800;9.216;2022-08-30T13:29:55;31.20;36.60
610;DHT22;292;48.800;9.216;2022-08-30T13:32:24;31.30;36.40
610;DHT22;292;48.800;9.216;2022-08-30T13:34:51;31.40;36.00
610;DHT22;292;48.800;9.216;2022-08-30T13:37:20;31.40;35.80
610;DHT22;292;48.800;9.216;2022-08-30T13:39:48;31.50;35.80
610;DHT22;292;48.800;9.216;2022-08-30T13:42:15;31.60;35.80
610;DHT22;292;48.800;9.216;2022-08-30T13:44:42;31.70;35.60
610;DHT22;292;48.800;9.216;2022-08-30T13:47:12;31.80;35.30
610;DHT22;292;48.800;9.216;2022-08-30T13:49:41;31.90;35.00
610;DHT22;292;48.800;9.216;2022-08-30T13:52:10;32.00;35.00
610;DHT22;292;48.800;9.216;2022-08-30T13:54:38;32.00;35.00
610;DHT22;292;48.800;9.216;2022-08-30T13:57:05;32.00;35.00
610;DHT22;292;48.800;9.216;2022-08-30T13:59:32;32.10;34.50
610;DHT22;292;48.800;9.216;2022-08-30T14:02:00;32.20;34.40
610;DHT22;292;48.800;9.216;2022-08-30T14:04:27;32.20;34.20
610;DHT22;292;48.800;9.216;2022-08-30T14:06:56;32.30;34.10
610;DHT22;292;48.800;9.216;2022-08-30T14:09:23;32.30;34.10
610;DHT22;292;48.800;9.216;2022-08-30T14:11:50;32.40;33.70
610;DHT22;292;48.800;9.216;2022-08-30T14:14:17;32.50;33.60
610;DHT22;292;48.800;9.216;2022-08-30T14:16:45;32.50;33.30
610;DHT22;292;48.800;9.216;2022-08-30T14:19:14;32.60;33.00
610;DHT22;292;48.800;9.216;2022-08-30T14:21:41;32.60;32.60
610;DHT22;292;48.800;9.216;2022-08-30T14:24:10;32.60;32.50
610;DHT22;292;48.800;9.216;2022-08-30T14:26:41;32.60;32.40
610;DHT22;292;48.800;9.216;2022-08-30T14:29:11;32.50;32.40
610;DHT22;292;48.800;9.216;2022-08-30T14:31:40;32.50;32.50
610;DHT22;292;48.800;9.216;2022-08-30T14:34:08;32.40;32.80
610;DHT22;292;48.800;9.216;2022-08-30T14:36:37;32.40;33.00
610;DHT22;292;48.800;9.216;2022-08-30T14:39:06;32.40;33.20
610;DHT22;292;48.800;9.216;2022-08-30T14:41:39;32.40;33.40
610;DHT22;292;48.800;9.216;2022-08-30T14:44:06;32.40;33.70
610;DHT22;292;48.800;9.216;2022-08-30T14:46:34;32.40;34.10
610;DHT22;292;48.800;9.216;2022-08-30T14:49:01;32.50;34.20
610;DHT22;292;48.800;9.216;2022-08-30T14:51:28;32.50;34.20
610;DHT22;292;48.800;9.216;2022-08-30T14:53:55;32.50;34.20
610;DHT22;292;48.800;9.216;2022-08-30T14:56:22;32.50;34.20
610;DHT22;292;48.800;9.216;2022-08-30T14:58:53;32.50;34.20
610;DHT22;292;48.800;9.216;2022-08-30T15:01:25;32.50;34.20
610;DHT22;292;48.800;9.216;2022-08-30T15:03:52;32.40;34.20
610;DHT22;292;48.800;9.216;2022-08-30T15:06:19;32.40;34.40
610;DHT22;292;48.800;9.216;2022-08-30T15:08:50;32.30;34.40
610;DHT22;292;48.800;9.216;2022-08-30T15:11:20;32.30;34.50
610;DHT22;292;48.800;9.216;2022-08-30T15:13:48;32.30;34.50
610;DHT22;292;48.800;9.216;2022-08-30T15:16:19;32.30;34.50
610;DHT22;292;48.800;9.216;2022-08-30T15:18:46;32.30;34.40
610;DHT22;292;48.800;9.216;2022-08-30T15:21:19;32.30;34.40
610;DHT22;292;48.800;9.216;2022-08-30T15:23:47;32.30;34.40
610;DHT22;292;48.800;9.216;2022-08-30T15:26:14;32.30;34.40
610;DHT22;292;48.800;9.216;2022-08-30T15:28:41;32.40;34.50
610;DHT22;292;48.800;9.216;2022-08-30T15:31:08;32.40;34.40
610;DHT22;292;48.800;9.216;2022-08-30T15:33:40;32.40;34.40
610;DHT22;292;48.800;9.216;2022-08-30T15:36:07;32.50;34.20
610;DHT22;292;48.800;9.216;2022-08-30T15:38:35;32.50;34.20
610;DHT22;292;48.800;9.216;2022-08-30T15:41:04;32.50;34.20
610;DHT22;292;48.800;9.216;2022-08-30T15:43:33;32.50;34.10
610;DHT22;292;48.800;9.216;2022-08-30T15:46:14;32.50;34.10
610;DHT22;292;48.800;9.216;2022-08-30T15:48:43;32.50;34.10
610;DHT22;292;48.800;9.216;2022-08-30T15:51:11;32.60;34.10
610;DHT22;292;48.800;9.216;2022-08-30T15:53:38;32.60;34.20
610;DHT22;292;48.800;9.216;2022-08-30T15:56:06;32.60;34.20
610;DHT22;292;48.800;9.216;2022-08-30T15:58:35;32.60;34.10
610;DHT22;292;48.800;9.216;2022-08-30T16:01:03;32.60;34.00
610;DHT22;292;48.800;9.216;2022-08-30T16:03:30;32.60;34.00
610;DHT22;292;48.800;9.216;2022-08-30T16:05:59;32.50;34.10
610;DHT22;292;48.800;9.216;2022-08-30T16:08:27;32.40;34.10
610;DHT22;292;48.800;9.216;2022-08-30T16:10:54;32.40;34.20
610;DHT22;292;48.800;9.216;2022-08-30T16:13:21;32.30;34.20
610;DHT22;292;48.800;9.216;2022-08-30T16:15:48;32.20;34.40
610;DHT22;292;48.800;9.216;2022-08-30T16:18:16;32.10;34.50
610;DHT22;292;48.800;9.216;2022-08-30T16:20:43;32.00;34.60
610;DHT22;292;48.800;9.216;2022-08-30T16:23:11;32.00;34.80
610;DHT22;292;48.800;9.216;2022-08-30T16:25:38;31.90;35.00
610;DHT22;292;48.800;9.216;2022-08-30T16:28:05;31.80;35.20
610;DHT22;292;48.800;9.216;2022-08-30T16:30:32;31.70;35.40
610;DHT22;292;48.800;9.216;2022-08-30T16:32:59;31.60;35.60
610;DHT22;292;48.800;9.216;2022-08-30T16:35:26;31.50;35.40
610;DHT22;292;48.800;9.216;2022-08-30T16:37:53;31.40;35.70
610;DHT22;292;48.800;9.216;2022-08-30T16:40:21;31.30;35.80
610;DHT22;292;48.800;9.216;2022-08-30T16:42:48;31.20;36.00
610;DHT22;292;48.800;9.216;2022-08-30T16:45:16;31.10;36.10
610;DHT22;292;48.800;9.216;2022-08-30T16:47:43;31.00;36.40
610;DHT22;292;48.800;9.216;2022-08-30T16:50:10;30.90;36.50
610;DHT22;292;48.800;9.216;2022-08-30T16:52:37;30.80;36.80
610;DHT22;292;48.800;9.216;2022-08-30T16:55:05;30.80;36.80
610;DHT22;292;48.800;9.216;2022-08-30T16:57:33;30.70;36.80
610;DHT22;292;48.800;9.216;2022-08-30T17:00:01;30.60;36.90
610;DHT22;292;48.800;9.216;2022-08-30T17:02:28;30.60;36.90
610;DHT22;292;48.800;9.216;2022-08-30T17:04:55;30.50;37.20
610;DHT22;292;48.800;9.216;2022-08-30T17:07:23;30.40;37.30
610;DHT22;292;48.800;9.216;2022-08-30T17:09:50;30.30;37.30